sensor_id;sensor_type;location;lat;lon;timestamp;pressure;altitude;pressure_sealevel;temperature;humidity
10310;BME280;5200;43.236;27.986;2023-03-26T00:01:06;99122.97;;;10.35;100.00
10310;BME280;5200;43.236;27.986;2023-03-26T00:03:34;99116.66;;;10.28;100.00
10310;BME280;5200;43.236;27.986;2023-03-26T00:06:02;99112.63;;;10.15;100.00
10310;BME280;5200;43.236;27.986;2023-03-26T00:08:32;99121.78;;;10.03;100.00
10310;BME280;5200;43.236;27.986;2023-03-26T00:10:59;99102.78;;;9.83;100.00
10310;BME280;5200;43.236;27.986;2023-03-26T00:13:26;99110.22;;;9.88;100.00
10310;BME280;5200;43.236;27.986;2023-03-26T00:15:54;99093.88;;;9.76;100.00
10310;BME280;5200;43.236;27.986;2023-03-26T00:18:21;99124.19;;;9.97;100.00
10310;BME280;5200;43.236;27.986;2023-03-26T00:20:54;99094.91;;;9.83;100.00
10310;BME280;5200;43.236;27.986;2023-03-26T00:23:21;99125.75;;;10.07;100.00
10310;BME280;5200;43.236;27.986;2023-03-26T00:25:48;99117.81;;;9.99;100.00
10310;BME280;5200;43.236;27.986;2023-03-26T00:28:15;99141.88;;;10.12;100.00
10310;BME280;5200;43.236;27.986;2023-03-26T00:30:46;99115.56;;;10.04;100.00
10310;BME280;5200;43.236;27.986;2023-03-26T00:33:14;99142.97;;;10.28;100.00
10310;BME280;5200;43.236;27.986;2023-03-26T00:35:42;99141.59;;;10.50;100.00
10310;BME280;5200;43.236;27.986;2023-03-26T00:38:11;99134.59;;;10.67;100.00
10310;BME280;5200;43.236;27.986;2023-03-26T00:40:38;99113.25;;;10.78;100.00
10310;BME280;5200;43.236;27.986;2023-03-26T00:43:09;99137.97;;;11.10;100.00
10310;BME280;5200;43.236;27.986;2023-03-26T00:45:43;99147.72;;;11.26;100.00
10310;BME280;5200;43.236;27.986;2023-03-26T00:48:11;99122.69;;;11.13;100.00
10310;BME280;5200;43.236;27.986;2023-03-26T00:50:39;99124.00;;;11.09;100.00
10310;BME280;5200;43.236;27.986;2023-03-26T00:53:07;99145.91;;;11.26;100.00
10310;BME280;5200;43.236;27.986;2023-03-26T00:55:36;99153.66;;;11.28;100.00
10310;BME280;5200;43.236;27.986;2023-03-26T00:58:04;99154.47;;;11.28;100.00
10310;BME280;5200;43.236;27.986;2023-03-26T01:00:36;99148.88;;;11.23;100.00
10310;BME280;5200;43.236;27.986;2023-03-26T01:03:05;99154.47;;;11.28;100.00
10310;BME280;5200;43.236;27.986;2023-03-26T01:05:48;99142.63;;;11.32;100.00
10310;BME280;5200;43.236;27.986;2023-03-26T01:08:29;99149.38;;;11.51;100.00
10310;BME280;5200;43.236;27.986;2023-03-26T01:10:58;99126.31;;;11.45;100.00
10310;BME280;5200;43.236;27.986;2023-03-26T01:13:32;99150.53;;;11.65;100.00
10310;BME280;5200;43.236;27.986;2023-03-26T01:16:00;99110.50;;;11.45;100.00
10310;BME280;5200;43.236;27.986;2023-03-26T01:18:30;99147.41;;;11.70;100.00
10310;BME280;5200;43.236;27.986;2023-03-26T01:21:07;99128.44;;;11.66;100.00
10310;BME280;5200;43.236;27.986;2023-03-26T01:23:43;99103.94;;;11.49;100.00
10310;BME280;5200;43.236;27.986;2023-03-26T01:26:35;99117.63;;;11.53;100.00
10310;BME280;5200;43.236;27.986;2023-03-26T01:29:05;99130.44;;;11.64;100.00
10310;BME280;5200;43.236;27.986;2023-03-26T01:31:42;99133.41;;;11.61;100.00
10310;BME280;5200;43.236;27.986;2023-03-26T01:34:16;99123.06;;;11.59;100.00
10310;BME280;5200;43.236;27.986;2023-03-26T01:36:47;99117.13;;;11.57;100.00
10310;BME280;5200;43.236;27.986;2023-03-26T01:39:23;99105.41;;;11.52;100.00
10310;BME280;5200;43.236;27.986;2023-03-26T01:42:01;99138.31;;;11.64;100.00
10310;BME280;5200;43.236;27.986;2023-03-26T01:44:36;99125.50;;;11.61;100.00
10310;BME280;5200;43.236;27.986;2023-03-26T01:47:05;99106.09;;;11.46;100.00
10310;BME280;5200;43.236;27.986;2023-03-26T01:49:33;99122.22;;;11.51;100.00
10310;BME280;5200;43.236;27.986;2023-03-26T01:52:00;99122.38;;;11.49;100.00
10310;BME280;5200;43.236;27.986;2023-03-26T01:54:28;99101.50;;;11.31;100.00
10310;BME280;5200;43.236;27.986;2023-03-26T01:57:06;99120.91;;;11.38;100.00
10310;BME280;5200;43.236;27.986;2023-03-26T01:59:48;99131.09;;;11.41;100.00
10310;BME280;5200;43.236;27.986;2023-03-26T02:02:23;99132.59;;;11.36;100.00
10310;BME280;5200;43.236;27.986;2023-03-26T02:04:58;99144.25;;;11.33;100.00
10310;BME280;5200;43.236;27.986;2023-03-26T02:07:30;99109.19;;;11.08;100.00
10310;BME280;5200;43.236;27.986;2023-03-26T02:10:07;99088.59;;;10.95;100.00
10310;BME280;5200;43.236;27.986;2023-03-26T02:12:37;99128.78;;;11.14;100.00
10310;BME280;5200;43.236;27.986;2023-03-26T02:15:05;99108.19;;;11.01;100.00
10310;BME280;5200;43.236;27.986;2023-03-26T02:17:32;99116.75;;;11.11;100.00
10310;BME280;5200;43.236;27.986;2023-03-26T02:19:59;99125.47;;;11.12;100.00
10310;BME280;5200;43.236;27.986;2023-03-26T02:22:31;99115.91;;;11.03;100.00
10310;BME280;5200;43.236;27.986;2023-03-26T02:24:58;99140.78;;;11.08;100.00
10310;BME280;5200;43.236;27.986;2023-03-26T02:27:25;99135.34;;;11.02;100.00
10310;BME280;5200;43.236;27.986;2023-03-26T02:29:53;99132.72;;;11.02;100.00
10310;BME280;5200;43.236;27.986;2023-03-26T02:32:19;99083.44;;;10.61;100.00
10310;BME280;5200;43.236;27.986;2023-03-26T02:34:46;99108.31;;;10.75;100.00
10310;BME280;5200;43.236;27.986;2023-03-26T02:37:15;99134.00;;;10.89;100.00
10310;BME280;5200;43.236;27.986;2023-03-26T02:39:43;99132.34;;;10.88;100.00
10310;BME280;5200;43.236;27.986;2023-03-26T02:42:10;99141.56;;;10.84;100.00
10310;BME280;5200;43.236;27.986;2023-03-26T02:44:37;99132.34;;;10.80;100.00
10310;BME280;5200;43.236;27.986;2023-03-26T02:47:06;99124.72;;;10.69;100.00
10310;BME280;5200;43.236;27.986;2023-03-26T02:49:33;99125.06;;;10.74;100.00
10310;BME280;5200;43.236;27.986;2023-03-26T02:52:00;99127.38;;;10.69;100.00
10310;BME280;5200;43.236;27.986;2023-03-26T02:54:30;99127.16;;;10.62;100.00
10310;BME280;5200;43.236;27.986;2023-03-26T02:56:57;99114.16;;;10.52;100.00
10310;BME280;5200;43.236;27.986;2023-03-26T02:59:24;99112.81;;;10.48;100.00
10310;BME280;5200;43.236;27.986;2023-03-26T03:01:51;99142.00;;;10.63;100.00
10310;BME280;5200;43.236;27.986;2023-03-26T03:04:20;99119.03;;;10.39;100.00
10310;BME280;5200;43.236;27.986;2023-03-26T03:06:46;99137.34;;;10.57;100.00
10310;BME280;5200;43.236;27.986;2023-03-26T03:09:17;99138.16;;;10.57;100.00
10310;BME280;5200;43.236;27.986;2023-03-26T03:11:44;99116.78;;;10.44;100.00
10310;BME280;5200;43.236;27.986;2023-03-26T03:14:11;99117.72;;;10.43;100.00
10310;BME280;5200;43.236;27.986;2023-03-26T03:16:38;99141.63;;;10.58;100.00
10310;BME280;5200;43.236;27.986;2023-03-26T03:19:05;99123.81;;;10.44;100.00
10310;BME280;5200;43.236;27.986;2023-03-26T03:21:33;99154.97;;;10.65;100.00
10310;BME280;5200;43.236;27.986;2023-03-26T03:24:00;99128.94;;;10.53;100.00
10310;BME280;5200;43.236;27.986;2023-03-26T03:26:27;99128.44;;;10.50;100.00
10310;BME280;5200;43.236;27.986;2023-03-26T03:28:56;99158.13;;;10.68;100.00
10310;BME280;5200;43.236;27.986;2023-03-26T03:31:23;99151.03;;;10.61;100.00
10310;BME280;5200;43.236;27.986;2023-03-26T03:33:51;99128.44;;;10.50;100.00
10310;BME280;5200;43.236;27.986;2023-03-26T03:36:19;99155.63;;;10.67;100.00
10310;BME280;5200;43.236;27.986;2023-03-26T03:38:49;99128.59;;;10.48;100.00
10310;BME280;5200;43.236;27.986;2023-03-26T03:41:16;99160.91;;;10.67;100.00
10310;BME280;5200;43.236;27.986;2023-03-26T03:43:43;99167.63;;;10.69;100.00
10310;BME280;5200;43.236;27.986;2023-03-26T03:46:10;99171.25;;;10.68;100.00
10310;BME280;5200;43.236;27.986;2023-03-26T03:48:37;99142.94;;;10.54;100.00
10310;BME280;5200;43.236;27.986;2023-03-26T03:51:04;99153.66;;;10.61;100.00
10310;BME280;5200;43.236;27.986;2023-03-26T03:53:31;99151.66;;;10.63;100.00
10310;BME280;5200;43.236;27.986;2023-03-26T03:56:03;99181.34;;;10.81;100.00
10310;BME280;5200;43.236;27.986;2023-03-26T03:58:34;99181.34;;;10.81;100.00
10310;BME280;5200;43.236;27.986;2023-03-26T04:01:01;99155.78;;;10.65;100.00
10310;BME280;5200;43.236;27.986;2023-03-26T04:03:29;99178.03;;;10.79;100.00
10310;BME280;5200;43.236;27.986;2023-03-26T04:05:56;99141.78;;;10.56;100.00
10310;BME280;5200;43.236;27.986;2023-03-26T04:08:23;99183.00;;;10.82;100.00
10310;BME280;5200;43.236;27.986;2023-03-26T04:10:50;99173.63;;;10.79;100.00
10310;BME280;5200;43.236;27.986;2023-03-26T04:13:18;99187.94;;;10.85;100.00
10310;BME280;5200;43.236;27.986;2023-03-26T04:15:45;99185.78;;;10.81;100.00
10310;BME280;5200;43.236;27.986;2023-03-26T04:18:12;99193.31;;;10.75;100.00
10310;BME280;5200;43.236;27.986;2023-03-26T04:20:40;99195.44;;;10.72;100.00
10310;BME280;5200;43.236;27.986;2023-03-26T04:23:11;99194.75;;;10.70;100.00
10310;BME280;5200;43.236;27.986;2023-03-26T04:25:39;99197.72;;;10.67;100.00
10310;BME280;5200;43.236;27.986;2023-03-26T04:28:07;99198.41;;;10.69;100.00
10310;BME280;5200;43.236;27.986;2023-03-26T04:30:37;99198.03;;;10.64;100.00
10310;BME280;5200;43.236;27.986;2023-03-26T04:33:08;99162.13;;;10.46;100.00
10310;BME280;5200;43.236;27.986;2023-03-26T04:35:40;99152.44;;;10.47;100.00
10310;BME280;5200;43.236;27.986;2023-03-26T04:38:10;99190.31;;;10.62;100.00
10310;BME280;5200;43.236;27.986;2023-03-26T04:40:37;99196.09;;;10.66;100.00
10310;BME280;5200;43.236;27.986;2023-03-26T04:43:04;99194.75;;;10.62;100.00
10310;BME280;5200;43.236;27.986;2023-03-26T04:45:31;99162.50;;;10.51;100.00
10310;BME280;5200;43.236;27.986;2023-03-26T04:47:59;99195.91;;;10.67;100.00
10310;BME280;5200;43.236;27.986;2023-03-26T04:50:26;99189.84;;;10.67;100.00
10310;BME280;5200;43.236;27.986;2023-03-26T04:52:54;99190.19;;;10.72;100.00
10310;BME280;5200;43.236;27.986;2023-03-26T04:55:24;99200.56;;;10.73;100.00
10310;BME280;5200;43.236;27.986;2023-03-26T04:57:55;99201.72;;;10.79;100.00
10310;BME280;5200;43.236;27.986;2023-03-26T05:00:24;99204.03;;;10.82;100.00
10310;BME280;5200;43.236;27.986;2023-03-26T05:02:52;99167.16;;;10.66;100.00
10310;BME280;5200;43.236;27.986;2023-03-26T05:05:23;99202.25;;;10.91;100.00
10310;BME280;5200;43.236;27.986;2023-03-26T05:07:51;99196.16;;;10.90;100.00
10310;BME280;5200;43.236;27.986;2023-03-26T05:10:18;99196.50;;;10.95;100.00
10310;BME280;5200;43.236;27.986;2023-03-26T05:12:46;99196.22;;;10.98;100.00
10310;BME280;5200;43.236;27.986;2023-03-26T05:15:14;99204.41;;;10.95;100.00
10310;BME280;5200;43.236;27.986;2023-03-26T05:17:41;99182.16;;;10.82;100.00
10310;BME280;5200;43.236;27.986;2023-03-26T05:20:15;99191.22;;;10.87;100.00
10310;BME280;5200;43.236;27.986;2023-03-26T05:22:46;99209.38;;;11.07;100.00
10310;BME280;5200;43.236;27.986;2023-03-26T05:25:14;99185.63;;;10.90;100.00
10310;BME280;5200;43.236;27.986;2023-03-26T05:27:41;99211.69;;;11.10;100.00
10310;BME280;5200;43.236;27.986;2023-03-26T05:30:12;99223.88;;;11.11;100.00
10310;BME280;5200;43.236;27.986;2023-03-26T05:32:39;99211.00;;;10.99;100.00
10310;BME280;5200;43.236;27.986;2023-03-26T05:35:06;99189.75;;;10.93;100.00
10310;BME280;5200;43.236;27.986;2023-03-26T05:37:34;99209.72;;;11.12;100.00
10310;BME280;5200;43.236;27.986;2023-03-26T05:40:04;99219.63;;;11.18;100.00
10310;BME280;5200;43.236;27.986;2023-03-26T05:42:36;99191.97;;;11.14;100.00
10310;BME280;5200;43.236;27.986;2023-03-26T05:45:03;99208.94;;;11.28;100.00
10310;BME280;5200;43.236;27.986;2023-03-26T05:47:30;99197.25;;;11.30;100.00
10310;BME280;5200;43.236;27.986;2023-03-26T05:49:57;99202.06;;;11.43;100.00
10310;BME280;5200;43.236;27.986;2023-03-26T05:52:24;99200.59;;;11.49;100.00
10310;BME280;5200;43.236;27.986;2023-03-26T05:54:51;99191.19;;;11.46;100.00
10310;BME280;5200;43.236;27.986;2023-03-26T05:57:19;99210.50;;;11.71;100.00
10310;BME280;5200;43.236;27.986;2023-03-26T05:59:48;99225.31;;;11.97;100.00
10310;BME280;5200;43.236;27.986;2023-03-26T06:02:15;99229.94;;;12.27;100.00
10310;BME280;5200;43.236;27.986;2023-03-26T06:04:42;99242.03;;;12.61;100.00
10310;BME280;5200;43.236;27.986;2023-03-26T06:07:10;99237.88;;;12.67;100.00
10310;BME280;5200;43.236;27.986;2023-03-26T06:09:38;99208.75;;;12.52;100.00
10310;BME280;5200;43.236;27.986;2023-03-26T06:12:05;99230.22;;;12.49;100.00
10310;BME280;5200;43.236;27.986;2023-03-26T06:14:35;99248.16;;;12.54;100.00
10310;BME280;5200;43.236;27.986;2023-03-26T06:17:02;99217.38;;;12.38;100.00
10310;BME280;5200;43.236;27.986;2023-03-26T06:19:29;99223.50;;;12.14;100.00
10310;BME280;5200;43.236;27.986;2023-03-26T06:21:56;99228.59;;;12.15;100.00
10310;BME280;5200;43.236;27.986;2023-03-26T06:24:23;99232.91;;;12.08;100.00
10310;BME280;5200;43.236;27.986;2023-03-26T06:26:50;99216.59;;;11.96;100.00
10310;BME280;5200;43.236;27.986;2023-03-26T06:29:17;99240.81;;;12.08;100.00
10310;BME280;5200;43.236;27.986;2023-03-26T06:31:46;99225.47;;;12.03;100.00
10310;BME280;5200;43.236;27.986;2023-03-26T06:34:13;99214.28;;;12.10;100.00
10310;BME280;5200;43.236;27.986;2023-03-26T06:36:39;99239.44;;;12.45;100.00
10310;BME280;5200;43.236;27.986;2023-03-26T06:39:06;99204.78;;;12.56;100.00
10310;BME280;5200;43.236;27.986;2023-03-26T06:41:34;99200.41;;;12.80;100.00
10310;BME280;5200;43.236;27.986;2023-03-26T06:44:00;99227.91;;;12.94;100.00
10310;BME280;5200;43.236;27.986;2023-03-26T06:46:27;99227.47;;;12.74;100.00
10310;BME280;5200;43.236;27.986;2023-03-26T06:48:56;99236.00;;;12.36;100.00
10310;BME280;5200;43.236;27.986;2023-03-26T06:51:22;99259.56;;;12.38;100.00
10310;BME280;5200;43.236;27.986;2023-03-26T06:53:49;99236.50;;;12.15;100.00
10310;BME280;5200;43.236;27.986;2023-03-26T06:56:16;99235.22;;;12.11;100.00
10310;BME280;5200;43.236;27.986;2023-03-26T06:58:43;99252.34;;;12.23;100.00
10310;BME280;5200;43.236;27.986;2023-03-26T07:01:10;99260.72;;;12.35;100.00
10310;BME280;5200;43.236;27.986;2023-03-26T07:03:37;99253.44;;;12.54;100.00
10310;BME280;5200;43.236;27.986;2023-03-26T07:06:06;99265.78;;;12.61;100.00
10310;BME280;5200;43.236;27.986;2023-03-26T07:08:33;99217.13;;;12.56;100.00
10310;BME280;5200;43.236;27.986;2023-03-26T07:11:00;99238.03;;;12.74;100.00
10310;BME280;5200;43.236;27.986;2023-03-26T07:13:27;99246.97;;;12.64;100.00
10310;BME280;5200;43.236;27.986;2023-03-26T07:15:53;99266.97;;;12.59;100.00
10310;BME280;5200;43.236;27.986;2023-03-26T07:18:20;99243.75;;;12.38;100.00
10310;BME280;5200;43.236;27.986;2023-03-26T07:20:47;99276.66;;;12.66;100.00
10310;BME280;5200;43.236;27.986;2023-03-26T07:23:16;99263.31;;;12.68;100.00
10310;BME280;5200;43.236;27.986;2023-03-26T07:25:45;99263.06;;;12.86;100.00
10310;BME280;5200;43.236;27.986;2023-03-26T07:28:21;99241.22;;;13.08;100.00
10310;BME280;5200;43.236;27.986;2023-03-26T07:30:57;99238.72;;;13.46;100.00
10310;BME280;5200;43.236;27.986;2023-03-26T07:33:30;99257.41;;;13.91;100.00
10310;BME280;5200;43.236;27.986;2023-03-26T07:36:09;99249.91;;;13.94;100.00
10310;BME280;5200;43.236;27.986;2023-03-26T07:38:47;99255.13;;;14.26;100.00
10310;BME280;5200;43.236;27.986;2023-03-26T07:41:22;99232.72;;;14.51;100.00
10310;BME280;5200;43.236;27.986;2023-03-26T07:46:48;99236.06;;;15.19;100.00
10310;BME280;5200;43.236;27.986;2023-03-26T07:49:18;99211.78;;;15.37;100.00
10310;BME280;5200;43.236;27.986;2023-03-26T07:51:46;99239.53;;;15.78;100.00
10310;BME280;5200;43.236;27.986;2023-03-26T07:54:15;99223.41;;;16.01;97.28
10310;BME280;5200;43.236;27.986;2023-03-26T07:56:48;99241.81;;;16.02;98.10
10310;BME280;5200;43.236;27.986;2023-03-26T07:59:23;99208.69;;;15.98;97.24
10310;BME280;5200;43.236;27.986;2023-03-26T08:01:59;99230.31;;;15.95;95.45
10310;BME280;5200;43.236;27.986;2023-03-26T08:04:43;99231.84;;;15.83;95.31
10310;BME280;5200;43.236;27.986;2023-03-26T08:07:17;99230.91;;;15.54;95.77
10310;BME280;5200;43.236;27.986;2023-03-26T08:09:58;99245.16;;;15.32;97.79
10310;BME280;5200;43.236;27.986;2023-03-26T08:12:37;99237.97;;;15.47;97.77
10310;BME280;5200;43.236;27.986;2023-03-26T08:15:12;99219.38;;;15.62;96.42
10310;BME280;5200;43.236;27.986;2023-03-26T08:17:46;99236.84;;;15.71;94.28
10310;BME280;5200;43.236;27.986;2023-03-26T08:20:25;99245.84;;;15.55;94.62
10310;BME280;5200;43.236;27.986;2023-03-26T08:23:00;99225.59;;;15.33;95.57
10310;BME280;5200;43.236;27.986;2023-03-26T08:25:34;99235.88;;;15.42;96.08
10310;BME280;5200;43.236;27.986;2023-03-26T08:28:21;99228.63;;;15.88;97.20
10310;BME280;5200;43.236;27.986;2023-03-26T08:30:50;99240.84;;;16.38;93.82
10310;BME280;5200;43.236;27.986;2023-03-26T08:33:20;99218.59;;;16.74;92.53
10310;BME280;5200;43.236;27.986;2023-03-26T08:35:48;99222.22;;;17.01;89.75
10310;BME280;5200;43.236;27.986;2023-03-26T08:38:17;99230.13;;;17.36;87.17
10310;BME280;5200;43.236;27.986;2023-03-26T08:44:27;99247.53;;;17.52;86.13
10310;BME280;5200;43.236;27.986;2023-03-26T08:50:17;99238.63;;;18.00;80.85
10310;BME280;5200;43.236;27.986;2023-03-26T08:55:56;99248.22;;;18.34;69.43
10310;BME280;5200;43.236;27.986;2023-03-26T08:58:52;99258.69;;;18.35;67.55
10310;BME280;5200;43.236;27.986;2023-03-26T09:01:56;99241.88;;;18.22;68.17
10310;BME280;5200;43.236;27.986;2023-03-26T09:04:42;99271.78;;;18.30;69.24
10310;BME280;5200;43.236;27.986;2023-03-26T09:10:50;99260.06;;;18.85;65.08
10310;BME280;5200;43.236;27.986;2023-03-26T09:16:47;99283.47;;;18.16;63.84
10310;BME280;5200;43.236;27.986;2023-03-26T09:25:50;99291.16;;;17.16;66.44
10310;BME280;5200;43.236;27.986;2023-03-26T09:28:45;99293.03;;;17.22;66.92
10310;BME280;5200;43.236;27.986;2023-03-26T09:34:25;99291.50;;;17.00;66.51
10310;BME280;5200;43.236;27.986;2023-03-26T09:36:54;99287.78;;;17.36;66.46
10310;BME280;5200;43.236;27.986;2023-03-26T09:39:43;99264.75;;;17.69;64.02
10310;BME280;5200;43.236;27.986;2023-03-26T09:42:16;99273.16;;;17.66;64.28
10310;BME280;5200;43.236;27.986;2023-03-26T09:45:18;99284.59;;;17.60;64.99
10310;BME280;5200;43.236;27.986;2023-03-26T09:50:59;99270.09;;;17.69;66.04
10310;BME280;5200;43.236;27.986;2023-03-26T09:53:50;99279.97;;;17.89;64.70
10310;BME280;5200;43.236;27.986;2023-03-26T09:56:30;99277.13;;;18.17;64.30
10310;BME280;5200;43.236;27.986;2023-03-26T09:59:16;99284.66;;;17.87;65.65
10310;BME280;5200;43.236;27.986;2023-03-26T10:01:50;99287.06;;;17.75;67.09
10310;BME280;5200;43.236;27.986;2023-03-26T10:04:50;99280.41;;;17.99;65.41
10310;BME280;5200;43.236;27.986;2023-03-26T10:07:47;99275.06;;;17.92;66.14
10310;BME280;5200;43.236;27.986;2023-03-26T10:10:25;99269.72;;;17.86;63.78
10310;BME280;5200;43.236;27.986;2023-03-26T10:13:01;99285.28;;;17.89;64.07
10310;BME280;5200;43.236;27.986;2023-03-26T10:15:34;99289.41;;;18.11;64.06
10310;BME280;5200;43.236;27.986;2023-03-26T10:18:14;99304.34;;;18.26;62.41
10310;BME280;5200;43.236;27.986;2023-03-26T10:20:56;99307.41;;;17.96;62.67
10310;BME280;5200;43.236;27.986;2023-03-26T10:23:40;99321.63;;;17.68;62.37
10310;BME280;5200;43.236;27.986;2023-03-26T10:26:22;99329.81;;;17.67;63.24
10310;BME280;5200;43.236;27.986;2023-03-26T10:29:10;99309.72;;;17.51;62.41
10310;BME280;5200;43.236;27.986;2023-03-26T10:31:43;99324.31;;;17.20;61.30
10310;BME280;5200;43.236;27.986;2023-03-26T10:34:28;99322.47;;;16.86;62.13
10310;BME280;5200;43.236;27.986;2023-03-26T10:37:04;99332.16;;;16.65;61.84
10310;BME280;5200;43.236;27.986;2023-03-26T10:39:51;99331.75;;;16.68;62.71
10310;BME280;5200;43.236;27.986;2023-03-26T10:42:42;99318.88;;;16.94;61.22
10310;BME280;5200;43.236;27.986;2023-03-26T10:45:23;99333.19;;;17.34;61.64
10310;BME280;5200;43.236;27.986;2023-03-26T10:48:19;99322.44;;;17.62;59.02
10310;BME280;5200;43.236;27.986;2023-03-26T10:54:07;99319.44;;;17.30;59.01
10310;BME280;5200;43.236;27.986;2023-03-26T10:56:39;99327.19;;;17.25;59.48
10310;BME280;5200;43.236;27.986;2023-03-26T10:59:09;99329.72;;;17.33;58.35
10310;BME280;5200;43.236;27.986;2023-03-26T11:01:42;99311.72;;;17.36;59.06
10310;BME280;5200;43.236;27.986;2023-03-26T11:04:29;99328.78;;;17.54;56.65
10310;BME280;5200;43.236;27.986;2023-03-26T11:07:08;99330.78;;;17.46;57.01
10310;BME280;5200;43.236;27.986;2023-03-26T11:09:43;99333.47;;;17.52;58.22
10310;BME280;5200;43.236;27.986;2023-03-26T11:12:21;99319.41;;;17.79;56.52
10310;BME280;5200;43.236;27.986;2023-03-26T11:14:57;99314.78;;;17.87;55.81
10310;BME280;5200;43.236;27.986;2023-03-26T11:17:37;99316.03;;;18.25;55.99
10310;BME280;5200;43.236;27.986;2023-03-26T11:20:09;99323.19;;;18.04;55.32
10310;BME280;5200;43.236;27.986;2023-03-26T11:22:49;99331.13;;;17.91;56.39
10310;BME280;5200;43.236;27.986;2023-03-26T11:25:25;99324.25;;;17.48;55.99
10310;BME280;5200;43.236;27.986;2023-03-26T11:28:04;99318.88;;;17.42;57.60
10310;BME280;5200;43.236;27.986;2023-03-26T11:30:40;99332.88;;;17.70;57.58
10310;BME280;5200;43.236;27.986;2023-03-26T11:33:17;99320.38;;;17.58;55.63
10310;BME280;5200;43.236;27.986;2023-03-26T11:35:47;99334.69;;;17.50;56.15
10310;BME280;5200;43.236;27.986;2023-03-26T11:38:18;99323.03;;;17.58;55.24
10310;BME280;5200;43.236;27.986;2023-03-26T11:40:49;99320.34;;;17.51;54.79
10310;BME280;5200;43.236;27.986;2023-03-26T11:43:22;99321.78;;;17.53;55.92
10310;BME280;5200;43.236;27.986;2023-03-26T11:45:50;99291.06;;;17.38;55.95
10310;BME280;5200;43.236;27.986;2023-03-26T11:48:22;99323.66;;;17.60;56.73
10310;BME280;5200;43.236;27.986;2023-03-26T11:50:58;99320.41;;;17.64;56.54
10310;BME280;5200;43.236;27.986;2023-03-26T11:53:28;99310.97;;;17.55;55.13
10310;BME280;5200;43.236;27.986;2023-03-26T11:56:01;99331.69;;;17.66;54.41
10310;BME280;5200;43.236;27.986;2023-03-26T11:58:32;99315.25;;;17.56;53.02
10310;BME280;5200;43.236;27.986;2023-03-26T12:01:03;99325.78;;;17.29;54.40
10310;BME280;5200;43.236;27.986;2023-03-26T12:03:32;99311.66;;;17.22;53.93
10310;BME280;5200;43.236;27.986;2023-03-26T12:05:59;99311.34;;;17.45;52.97
10310;BME280;5200;43.236;27.986;2023-03-26T12:08:31;99313.00;;;17.53;52.88
10310;BME280;5200;43.236;27.986;2023-03-26T12:11:02;99324.75;;;17.79;52.10
10310;BME280;5200;43.236;27.986;2023-03-26T12:13:34;99312.94;;;18.01;51.92
10310;BME280;5200;43.236;27.986;2023-03-26T12:16:09;99301.91;;;18.11;50.98
10310;BME280;5200;43.236;27.986;2023-03-26T12:18:39;99308.66;;;18.13;54.39
10310;BME280;5200;43.236;27.986;2023-03-26T12:21:09;99312.34;;;17.99;56.07
10310;BME280;5200;43.236;27.986;2023-03-26T12:23:42;99312.94;;;18.01;56.12
10310;BME280;5200;43.236;27.986;2023-03-26T12:26:15;99289.38;;;17.91;55.62
10310;BME280;5200;43.236;27.986;2023-03-26T12:28:47;99312.31;;;18.06;55.95
10310;BME280;5200;43.236;27.986;2023-03-26T12:31:15;99313.75;;;18.08;53.27
10310;BME280;5200;43.236;27.986;2023-03-26T12:33:50;99297.78;;;17.88;54.05
10310;BME280;5200;43.236;27.986;2023-03-26T12:36:30;99303.13;;;17.95;52.37
10310;BME280;5200;43.236;27.986;2023-03-26T12:38:58;99308.22;;;17.90;50.83
10310;BME280;5200;43.236;27.986;2023-03-26T12:41:33;99297.38;;;18.05;50.95
10310;BME280;5200;43.236;27.986;2023-03-26T12:44:21;99297.59;;;18.16;49.21
10310;BME280;5200;43.236;27.986;2023-03-26T12:46:49;99313.56;;;18.10;51.88
10310;BME280;5200;43.236;27.986;2023-03-26T12:49:19;99297.38;;;18.05;53.26
10310;BME280;5200;43.236;27.986;2023-03-26T12:51:50;99284.91;;;18.19;50.60
10310;BME280;5200;43.236;27.986;2023-03-26T12:54:33;99294.34;;;18.28;48.45
10310;BME280;5200;43.236;27.986;2023-03-26T12:57:17;99287.16;;;18.35;47.35
10310;BME280;5200;43.236;27.986;2023-03-26T12:59:52;99279.16;;;18.35;48.35
10310;BME280;5200;43.236;27.986;2023-03-26T13:03:00;99277.50;;;18.01;47.84
10310;BME280;5200;43.236;27.986;2023-03-26T13:05:40;99278.69;;;17.71;49.81
10310;BME280;5200;43.236;27.986;2023-03-26T13:08:23;99283.09;;;17.44;49.35
10310;BME280;5200;43.236;27.986;2023-03-26T13:10:57;99281.34;;;17.10;50.24
10310;BME280;5200;43.236;27.986;2023-03-26T13:13:49;99272.66;;;16.95;50.68
10310;BME280;5200;43.236;27.986;2023-03-26T13:16:26;99275.00;;;16.76;51.19
10310;BME280;5200;43.236;27.986;2023-03-26T13:19:00;99275.78;;;16.70;51.92
10310;BME280;5200;43.236;27.986;2023-03-26T13:21:38;99274.47;;;16.59;50.94
10310;BME280;5200;43.236;27.986;2023-03-26T13:24:16;99277.31;;;16.51;51.98
10310;BME280;5200;43.236;27.986;2023-03-26T13:26:56;99267.56;;;16.65;52.77
10310;BME280;5200;43.236;27.986;2023-03-26T13:29:31;99263.91;;;16.66;50.98
10310;BME280;5200;43.236;27.986;2023-03-26T13:32:07;99265.94;;;16.64;50.68
10310;BME280;5200;43.236;27.986;2023-03-26T13:34:55;99270.38;;;16.57;51.40
10310;BME280;5200;43.236;27.986;2023-03-26T13:37:29;99264.69;;;16.60;50.01
10310;BME280;5200;43.236;27.986;2023-03-26T13:40:02;99260.28;;;16.45;51.38
10310;BME280;5200;43.236;27.986;2023-03-26T13:42:45;99281.63;;;16.31;52.17
10310;BME280;5200;43.236;27.986;2023-03-26T13:45:29;99285.09;;;16.31;52.47
10310;BME280;5200;43.236;27.986;2023-03-26T13:48:01;99277.59;;;16.35;52.45
10310;BME280;5200;43.236;27.986;2023-03-26T13:50:33;99283.78;;;16.42;51.85
10310;BME280;5200;43.236;27.986;2023-03-26T13:53:05;99272.34;;;16.48;51.48
10310;BME280;5200;43.236;27.986;2023-03-26T13:55:39;99270.44;;;16.63;51.80
10310;BME280;5200;43.236;27.986;2023-03-26T13:58:12;99270.16;;;16.80;51.45